Time;durP1;ratioP1;P1;durP2;ratioP2;P2;SDS_P1;SDS_P2;PMS_P1;PMS_P2;Temp;Humidity;BMP_temperature;BMP_pressure;BME280_temperature;BME280_humidity;BME280_pressure;Samples;Min_cycle;Max_cycle;Signal;HPM_P1;HPM_P2
2023/09/01 00:01:32;;;;;;;0.20;0.20;;;;;;;18.62;100.00;99846.00;5089479;28;20028;-61
2023/09/01 00:03:57;;;;;;;0.20;0.20;;;;;;;18.67;100.00;99848.38;5089958;28;20032;-62
2023/09/01 00:06:22;;;;;;;0.20;0.20;;;;;;;18.65;100.00;99855.72;5071775;28;20471;-61
2023/09/01 00:08:48;;;;;;;0.20;0.20;;;;;;;18.64;100.00;99848.59;5073410;28;20103;-61
2023/09/01 00:11:14;;;;;;;0.17;0.17;;;;;;;18.57;100.00;99836.50;5069395;28;20026;-62
2023/09/01 00:13:40;;;;;;;0.20;0.20;;;;;;;18.60;100.00;99857.84;5066748;28;20660;-62
2023/09/01 00:16:05;;;;;;;0.20;0.20;;;;;;;18.59;100.00;99850.72;5066856;28;20059;-62
2023/09/01 00:18:31;;;;;;;0.20;0.20;;;;;;;18.58;100.00;99852.56;5070395;28;20040;-62
2023/09/01 00:20:58;;;;;;;0.20;0.20;;;;;;;18.58;100.00;99838.25;5068878;28;20017;-62
2023/09/01 00:23:24;;;;;;;0.20;0.20;;;;;;;18.55;100.00;99844.69;5070347;28;20103;-61
2023/09/01 00:26:00;;;;;;;0.20;0.20;;;;;;;18.55;100.00;99836.59;5070445;28;20529;-62
2023/09/01 00:28:26;;;;;;;0.20;0.20;;;;;;;18.60;100.00;99841.69;5069167;28;20107;-62
2023/09/01 00:30:56;;;;;;;0.17;0.17;;;;;;;18.67;100.00;99848.38;5069186;28;20048;-62
2023/09/01 00:33:25;;;;;;;0.20;0.20;;;;;;;18.71;100.00;99849.91;5068972;28;20464;-62
2023/09/01 00:35:51;;;;;;;0.10;0.10;;;;;;;18.66;100.00;99846.66;5068926;28;20025;-62
2023/09/01 00:38:17;;;;;;;0.20;0.20;;;;;;;18.70;100.00;99842.78;5068113;28;20098;-62
2023/09/01 00:40:42;;;;;;;0.20;0.20;;;;;;;18.70;100.00;99850.88;5067790;28;20388;-63
2023/09/01 00:43:07;;;;;;;0.20;0.20;;;;;;;18.64;100.00;99845.88;5068831;28;20020;-62
2023/09/01 00:45:36;;;;;;;0.20;0.20;;;;;;;18.63;100.00;99844.19;5068792;28;20024;-62
2023/09/01 00:48:01;;;;;;;0.20;0.20;;;;;;;18.65;100.00;99844.94;5068889;28;20028;-62
2023/09/01 00:50:27;;;;;;;0.20;0.20;;;;;;;18.66;100.00;99843.97;5068004;28;20024;-62
2023/09/01 00:52:54;;;;;;;0.20;0.20;;;;;;;18.63;100.00;99847.75;5068696;28;20032;-62
2023/09/01 00:55:19;;;;;;;0.20;0.20;;;;;;;18.65;100.00;99839.56;5067926;28;20033;-62
2023/09/01 00:57:45;;;;;;;0.20;0.20;;;;;;;18.65;100.00;99839.56;5068652;28;20109;-62
2023/09/01 01:00:35;;;;;;;0.20;0.20;;;;;;;18.67;100.00;99842.97;5067672;28;20038;-62
2023/09/01 01:03:04;;;;;;;0.20;0.20;;;;;;;18.68;100.00;99850.13;5068341;28;20028;-63
2023/09/01 01:06:09;;;;;;;0.20;0.20;;;;;;;18.69;100.00;99846.44;5069360;28;20039;-62
2023/09/01 01:09:10;;;;;;;0.20;0.20;;;;;;;18.71;100.00;99841.81;5082956;28;20059;-62
2023/09/01 01:11:54;;;;;;;0.20;0.20;;;;;;;18.74;100.00;99833.50;5089544;28;20496;-63
2023/09/01 01:14:25;;;;;;;;;;;;;;;18.77;100.00;99838.69;5086964;28;20066;-62
2023/09/01 01:16:52;;;;;;;0.20;0.20;;;;;;;18.78;100.00;99832.34;5088027;28;19916;-62
2023/09/01 01:19:48;;;;;;;0.20;0.20;;;;;;;18.77;100.00;99834.16;5088095;28;20043;-62
2023/09/01 01:22:13;;;;;;;0.20;0.20;;;;;;;18.75;100.00;99829.84;5075705;28;20028;-63
2023/09/01 01:24:39;;;;;;;0.17;0.17;;;;;;;18.72;100.00;99832.75;5087864;28;20097;-62
2023/09/01 01:27:05;;;;;;;0.20;0.20;;;;;;;18.79;100.00;99824.16;5083589;28;20086;-62
2023/09/01 01:29:30;;;;;;;0.20;0.20;;;;;;;18.85;99.13;99833.63;5087227;28;20035;-62
2023/09/01 01:31:57;;;;;;;0.10;0.10;;;;;;;18.88;98.59;99830.75;5084444;28;20033;-62
2023/09/01 01:34:37;;;;;;;0.17;0.17;;;;;;;18.92;98.81;99838.50;5075828;28;20029;-62
2023/09/01 01:37:22;;;;;;;0.20;0.20;;;;;;;18.93;98.06;99828.59;5085765;28;20032;-62
2023/09/01 01:39:50;;;;;;;0.20;0.20;;;;;;;18.91;97.74;99830.53;5074004;28;20056;-62
2023/09/01 01:42:18;;;;;;;0.20;0.20;;;;;;;18.94;97.25;99836.56;5086652;28;20039;-62
2023/09/01 01:44:49;;;;;;;0.20;0.20;;;;;;;18.99;96.97;99837.13;5070681;28;20434;-62
2023/09/01 01:47:15;;;;;;;0.20;0.20;;;;;;;19.04;96.35;99842.19;5087932;28;20454;-62
2023/09/01 01:49:41;;;;;;;0.20;0.20;;;;;;;19.08;96.68;99838.28;5088880;28;20032;-62
2023/09/01 01:52:06;;;;;;;0.20;0.20;;;;;;;19.07;96.28;99836.56;5088199;28;20448;-62
2023/09/01 01:54:32;;;;;;;0.20;0.20;;;;;;;19.14;96.54;99843.28;5088284;28;20077;-62
2023/09/01 01:56:58;;;;;;;0.20;0.20;;;;;;;19.16;96.34;99852.13;5089063;28;20113;-62
2023/09/01 01:59:24;;;;;;;0.20;0.20;;;;;;;19.18;95.98;99850.16;5089042;28;20028;-62
2023/09/01 02:01:49;;;;;;;0.20;0.20;;;;;;;19.22;95.93;99852.56;5088084;28;20495;-62
2023/09/01 02:04:15;;;;;;;0.20;0.20;;;;;;;19.25;96.07;99852.34;5088563;28;20023;-62
2023/09/01 02:06:40;;;;;;;0.20;0.20;;;;;;;19.27;96.16;99844.13;5088724;28;20039;-62
2023/09/01 02:09:09;;;;;;;0.10;0.10;;;;;;;19.29;95.99;99842.22;5080975;28;20040;-62
2023/09/01 02:11:36;;;;;;;0.10;0.10;;;;;;;19.27;96.62;99846.81;5077377;28;20032;-62
2023/09/01 02:14:01;;;;;;;0.10;0.10;;;;;;;19.30;96.89;99838.53;5087205;28;20055;-62
2023/09/01 02:16:26;;;;;;;0.20;0.20;;;;;;;19.24;96.53;99829.00;5088106;28;20173;-63
2023/09/01 02:18:52;;;;;;;0.20;0.20;;;;;;;19.30;95.98;99843.94;5088166;28;20107;-62
2023/09/01 02:21:21;;;;;;;0.20;0.20;;;;;;;19.30;96.05;99835.84;5087545;28;20403;-62
2023/09/01 02:23:47;;;;;;;0.20;0.20;;;;;;;19.26;96.45;99837.00;5086148;28;20031;-62
2023/09/01 02:26:23;;;;;;;0.10;0.10;;;;;;;19.31;96.79;99846.53;5085401;28;20483;-62
2023/09/01 02:28:49;;;;;;;0.20;0.20;;;;;;;19.31;96.28;99840.25;5086425;28;20055;-62
2023/09/01 02:31:15;;;;;;;0.20;0.20;;;;;;;19.29;95.97;99836.84;5086053;28;20063;-62
2023/09/01 02:33:42;;;;;;;0.10;0.10;;;;;;;19.32;95.83;99847.41;5086879;28;20060;-62
2023/09/01 02:36:30;;;;;;;0.20;0.20;;;;;;;19.31;94.66;99845.66;5086711;28;20039;-62
2023/09/01 02:38:56;;;;;;;0.20;0.20;;;;;;;19.34;94.56;99845.47;5086859;28;20101;-61
2023/09/01 02:41:22;;;;;;;0.20;0.20;;;;;;;19.35;94.39;99849.88;5088019;28;20020;-62
2023/09/01 02:43:48;;;;;;;0.13;0.13;;;;;;;19.38;93.24;99841.56;5087006;28;20383;-62
2023/09/01 02:46:14;;;;;;;0.17;0.17;;;;;;;19.41;93.46;99847.59;5087216;28;20365;-62
2023/09/01 02:48:39;;;;;;;0.20;0.20;;;;;;;19.45;92.65;99846.44;5088074;28;20053;-62
2023/09/01 02:51:06;;;;;;;0.20;0.20;;;;;;;19.42;91.91;99837.69;5087947;28;20028;-62
2023/09/01 02:53:32;;;;;;;0.20;0.20;;;;;;;19.50;91.67;99840.69;5087047;28;20043;-62
2023/09/01 02:55:58;;;;;;;0.10;0.10;;;;;;;19.54;91.10;99845.75;5087363;28;20031;-62
2023/09/01 02:58:24;;;;;;;0.20;0.20;;;;;;;19.57;90.92;99850.91;5087892;28;20024;-62
2023/09/01 03:00:50;;;;;;;0.20;0.20;;;;;;;19.58;91.26;99849.09;5085779;28;20032;-62
2023/09/01 03:03:15;;;;;;;0.10;0.10;;;;;;;19.58;90.72;99851.78;5087881;28;20073;-62
2023/09/01 03:05:40;;;;;;;0.10;0.10;;;;;;;19.62;90.63;99846.06;5087860;28;20502;-63
2023/09/01 03:08:06;;;;;;;0.10;0.10;;;;;;;19.59;90.40;99845.41;5085459;28;20054;-62
2023/09/01 03:10:32;;;;;;;0.20;0.20;;;;;;;19.60;90.35;99848.00;5057049;28;20039;-61
2023/09/01 03:12:58;;;;;;;0.20;0.20;;;;;;;19.64;89.80;99852.22;5067418;28;20028;-61
2023/09/01 03:15:23;;;;;;;0.20;0.20;;;;;;;19.64;89.80;99846.81;5067112;28;20063;-62
2023/09/01 03:17:49;;;;;;;0.20;0.20;;;;;;;19.64;89.83;99848.63;5068095;28;20119;-62
2023/09/01 03:20:15;;;;;;;0.20;0.20;;;;;;;19.62;89.99;99840.66;5072880;28;20036;-62
2023/09/01 03:22:41;;;;;;;0.10;0.10;;;;;;;19.64;90.33;99849.50;5076256;28;20051;-61
2023/09/01 03:25:09;;;;;;;0.10;0.10;;;;;;;19.63;90.60;99841.53;5063187;28;20488;-62
2023/09/01 03:27:37;;;;;;;0.13;0.13;;;;;;;19.67;90.15;99845.72;5067641;28;20028;-62
2023/09/01 03:30:03;;;;;;;0.10;0.10;;;;;;;19.69;90.39;99846.47;5067202;28;20028;-62
2023/09/01 03:32:29;;;;;;;0.20;0.20;;;;;;;19.69;89.95;99845.63;5066661;28;20031;-62
2023/09/01 03:34:55;;;;;;;0.20;0.20;;;;;;;19.71;90.24;99841.84;5067398;28;20127;-62
2023/09/01 03:37:22;;;;;;;0.20;0.20;;;;;;;19.69;90.34;99841.06;5071128;28;20051;-62
2023/09/01 03:39:47;;;;;;;0.15;0.15;;;;;;;19.76;90.67;99839.66;5071524;28;20024;-62
2023/09/01 03:42:13;;;;;;;0.10;0.10;;;;;;;19.76;90.14;99836.97;5070242;28;20755;-62
2023/09/01 03:44:38;;;;;;;0.10;0.10;;;;;;;19.79;90.46;99835.88;5071390;28;20029;-62
2023/09/01 03:47:04;;;;;;;0.10;0.10;;;;;;;19.80;91.28;99832.22;5071154;28;20036;-62
2023/09/01 03:49:30;;;;;;;0.20;0.20;;;;;;;19.80;90.73;99838.47;5070940;28;20097;-62
2023/09/01 03:51:55;;;;;;;0.20;0.20;;;;;;;19.81;90.92;99834.78;5069693;28;20543;-62
2023/09/01 03:54:21;;;;;;;0.10;0.10;;;;;;;19.82;91.63;99835.66;5066411;28;20886;-62
2023/09/01 03:56:46;;;;;;;0.10;0.10;;;;;;;19.81;91.74;99839.31;5051416;28;20115;-62
2023/09/01 03:59:11;;;;;;;0.10;0.10;;;;;;;19.81;92.29;99829.41;5050908;28;20078;-62
2023/09/01 04:01:37;;;;;;;0.10;0.10;;;;;;;19.77;93.25;99833.28;5060264;28;20043;-62
2023/09/01 04:04:05;;;;;;;0.10;0.10;;;;;;;19.80;92.89;99840.31;5050907;28;20025;-62
2023/09/01 04:06:30;;;;;;;0.20;0.20;;;;;;;19.81;93.33;99848.28;5059308;28;20527;-62
2023/09/01 04:08:55;;;;;;;0.17;0.17;;;;;;;19.82;93.72;99846.47;5073054;28;20040;-62
2023/09/01 04:11:21;;;;;;;0.20;0.20;;;;;;;19.81;94.96;99856.38;5069763;28;20029;-62
2023/09/01 04:13:46;;;;;;;0.10;0.10;;;;;;;19.79;96.23;99858.34;5069879;28;20024;-61
2023/09/01 04:16:12;;;;;;;0.10;0.10;;;;;;;19.75;98.33;99859.53;5057636;28;20028;-62
2023/09/01 04:18:37;;;;;;;0.20;0.20;;;;;;;19.66;100.00;99862.91;5069471;28;20030;-63
2023/09/01 04:21:03;;;;;;;0.20;0.20;;;;;;;19.57;100.00;99858.16;5073974;28;20035;-63
2023/09/01 04:23:28;;;;;;;0.20;0.20;;;;;;;19.50;100.00;99863.13;5072599;28;20164;-63
2023/09/01 04:25:54;;;;;;;0.20;0.20;;;;;;;19.44;100.00;99868.09;5075819;28;20024;-62
2023/09/01 04:28:19;;;;;;;0.15;0.15;;;;;;;19.40;100.00;99862.06;5090390;28;20019;-63
2023/09/01 04:30:46;;;;;;;0.10;0.10;;;;;;;19.40;100.00;99861.19;5090370;28;20063;-63
2023/09/01 04:33:12;;;;;;;0.20;0.20;;;;;;;19.35;100.00;99866.06;5089634;28;20521;-63
2023/09/01 04:35:38;;;;;;;0.20;0.20;;;;;;;19.34;100.00;99872.44;5081130;28;20024;-63
2023/09/01 04:38:04;;;;;;;0.20;0.20;;;;;;;19.29;100.00;99874.59;5076739;28;20052;-63
2023/09/01 04:40:30;;;;;;;0.10;0.10;;;;;;;19.26;100.00;99875.63;5081356;28;20051;-63
2023/09/01 04:42:56;;;;;;;0.20;0.20;;;;;;;19.22;100.00;99889.44;5078231;28;20051;-64
2023/09/01 04:45:22;;;;;;;0.20;0.20;;;;;;;19.16;100.00;99897.97;5076281;28;20032;-66
2023/09/01 04:47:48;;;;;;;0.20;0.20;;;;;;;19.15;100.00;99888.13;5079816;28;20399;-65
2023/09/01 04:50:14;;;;;;;0.20;0.20;;;;;;;19.07;100.00;99877.88;5081672;28;20024;-66
2023/09/01 04:52:39;;;;;;;0.20;0.20;;;;;;;19.10;100.00;99901.06;5085779;28;20030;-66
2023/09/01 04:55:05;;;;;;;0.20;0.20;;;;;;;19.06;100.00;99900.41;5078467;28;20016;-66
2023/09/01 04:57:31;;;;;;;0.20;0.20;;;;;;;19.10;100.00;99906.47;5087989;28;20034;-66
2023/09/01 04:59:57;;;;;;;0.20;0.20;;;;;;;19.10;100.00;99914.53;5089851;28;20118;-65
2023/09/01 05:02:22;;;;;;;0.20;0.20;;;;;;;19.08;100.00;99903.88;5087403;28;20028;-65
2023/09/01 05:04:48;;;;;;;0.20;0.20;;;;;;;19.10;100.00;99904.63;5088635;28;20215;-64
2023/09/01 05:07:13;;;;;;;0.20;0.20;;;;;;;19.10;100.00;99895.66;5088327;28;20051;-64
2023/09/01 05:09:39;;;;;;;0.20;0.20;;;;;;;19.05;100.00;99895.13;5088379;28;20028;-63
2023/09/01 05:12:05;;;;;;;0.20;0.20;;;;;;;19.07;100.00;99904.84;5084808;28;20137;-63
2023/09/01 05:14:30;;;;;;;0.20;0.20;;;;;;;19.02;100.00;99892.66;5085978;28;20038;-62
2023/09/01 05:16:56;;;;;;;0.20;0.20;;;;;;;18.95;100.00;99891.34;5081890;28;20031;-62
2023/09/01 05:19:22;;;;;;;0.20;0.20;;;;;;;18.97;100.00;99894.78;5080901;28;20054;-62
2023/09/01 05:21:48;;;;;;;0.15;0.15;;;;;;;18.97;100.00;99901.06;5087333;28;20760;-62
2023/09/01 05:24:13;;;;;;;0.20;0.20;;;;;;;18.93;100.00;99896.00;5087327;28;20036;-62
2023/09/01 05:26:39;;;;;;;0.20;0.20;;;;;;;18.95;100.00;99908.38;5087319;28;20024;-62
2023/09/01 05:29:04;;;;;;;0.20;0.20;;;;;;;18.98;100.00;99902.78;5089052;28;20076;-63
2023/09/01 05:31:30;;;;;;;0.20;0.20;;;;;;;18.99;100.00;99909.03;5088101;28;20020;-63
2023/09/01 05:33:55;;;;;;;0.20;0.20;;;;;;;18.94;100.00;99905.78;5089033;28;20328;-63
2023/09/01 05:36:21;;;;;;;0.20;0.20;;;;;;;18.94;100.00;99914.75;5087383;28;20115;-62
2023/09/01 05:38:46;;;;;;;0.20;0.20;;;;;;;18.97;100.00;99925.31;5080366;28;20461;-62
2023/09/01 05:41:13;;;;;;;0.20;0.20;;;;;;;19.02;100.00;99925.88;5069039;28;20024;-62
2023/09/01 05:43:38;;;;;;;0.20;0.20;;;;;;;19.02;100.00;99930.38;5079931;28;20020;-63
2023/09/01 05:46:04;;;;;;;0.20;0.20;;;;;;;19.03;100.00;99934.78;5088346;28;20032;-63
2023/09/01 05:48:29;;;;;;;0.20;0.20;;;;;;;19.06;100.00;99931.91;5088138;28;20031;-62
2023/09/01 05:50:55;;;;;;;0.20;0.20;;;;;;;19.01;100.00;99920.59;5087667;28;20092;-62
2023/09/01 05:53:26;;;;;;;0.20;0.20;;;;;;;18.99;100.00;99930.59;5086622;28;20051;-62
2023/09/01 05:55:51;;;;;;;0.20;0.20;;;;;;;19.03;100.00;99921.31;5087571;28;20077;-62
2023/09/01 05:58:17;;;;;;;0.20;0.20;;;;;;;19.04;100.00;99923.06;5087087;28;20047;-62
2023/09/01 06:00:42;;;;;;;0.20;0.20;;;;;;;19.05;100.00;99914.00;5081454;28;20599;-63
2023/09/01 06:03:08;;;;;;;0.20;0.20;;;;;;;19.00;100.00;99916.16;5074264;28;20032;-62
2023/09/01 06:05:33;;;;;;;0.20;0.20;;;;;;;19.11;100.00;99935.16;5071484;28;20519;-62
2023/09/01 06:07:59;;;;;;;0.20;0.20;;;;;;;19.18;100.00;99928.34;5076900;28;20056;-62
2023/09/01 06:10:24;;;;;;;0.20;0.20;;;;;;;19.24;100.00;99919.88;5067106;28;20037;-62
2023/09/01 06:12:49;;;;;;;0.20;0.20;;;;;;;19.22;100.00;99927.19;5069920;28;20792;-63
2023/09/01 06:15:15;;;;;;;0.20;0.20;;;;;;;19.35;100.00;99933.50;5072384;28;20727;-62
2023/09/01 06:17:40;;;;;;;0.20;0.20;;;;;;;19.49;100.00;99930.69;5073876;28;20042;-63
2023/09/01 06:20:06;;;;;;;0.20;0.20;;;;;;;19.51;100.00;99940.41;5073606;28;20143;-62
2023/09/01 06:22:33;;;;;;;0.20;0.20;;;;;;;19.54;100.00;99936.63;5077193;28;20139;-63
2023/09/01 06:24:58;;;;;;;0.20;0.20;;;;;;;19.54;100.00;99939.31;5070456;28;20032;-63
2023/09/01 06:27:24;;;;;;;0.20;0.20;;;;;;;19.58;100.00;99933.63;5073814;28;20042;-63
2023/09/01 06:29:49;;;;;;;0.20;0.20;;;;;;;19.58;100.00;99941.72;5075428;28;20555;-62
2023/09/01 06:32:15;;;;;;;0.20;0.20;;;;;;;19.62;100.00;99948.59;5076372;28;20053;-62
2023/09/01 06:34:41;;;;;;;0.20;0.20;;;;;;;19.59;100.00;99940.72;5069049;28;20054;-62
2023/09/01 06:37:06;;;;;;;0.20;0.20;;;;;;;19.58;100.00;99935.44;5079747;28;20149;-62
2023/09/01 06:39:32;;;;;;;0.20;0.20;;;;;;;19.69;100.00;99943.63;5085097;28;20538;-63
2023/09/01 06:41:57;;;;;;;0.20;0.20;;;;;;;19.72;100.00;99943.41;5086833;28;20073;-62
2023/09/01 06:44:24;;;;;;;0.20;0.20;;;;;;;19.75;100.00;99943.22;5083345;28;20115;-62
2023/09/01 06:46:49;;;;;;;0.20;0.20;;;;;;;19.82;100.00;99947.19;5066590;28;20029;-62
2023/09/01 06:49:15;;;;;;;0.20;0.20;;;;;;;19.91;100.00;99949.25;5079534;28;20050;-62
2023/09/01 06:51:41;;;;;;;0.20;0.20;;;;;;;19.93;100.00;99952.69;5086406;28;20028;-62
2023/09/01 06:54:06;;;;;;;0.20;0.20;;;;;;;19.98;100.00;99947.84;5086254;28;20027;-62
2023/09/01 06:56:32;;;;;;;0.20;0.20;;;;;;;20.02;100.00;99949.31;5085451;28;20137;-62
2023/09/01 06:58:57;;;;;;;0.20;0.20;;;;;;;20.07;100.00;99943.59;5084730;28;20134;-62
2023/09/01 07:01:22;;;;;;;0.20;0.20;;;;;;;20.10;100.00;99944.22;5085639;28;20028;-62
2023/09/01 07:03:48;;;;;;;0.20;0.20;;;;;;;20.17;100.00;99948.25;5082830;28;20650;-62
2023/09/01 07:06:13;;;;;;;0.20;0.20;;;;;;;20.22;100.00;99942.50;5084977;28;20133;-62
2023/09/01 07:08:39;;;;;;;0.20;0.20;;;;;;;20.27;100.00;99943.91;5081768;28;20040;-62
2023/09/01 07:11:09;;;;;;;0.20;0.20;;;;;;;20.20;100.00;99939.91;5081621;28;20057;-62
2023/09/01 07:13:34;;;;;;;0.20;0.20;;;;;;;20.22;100.00;99942.50;5087764;28;20116;-62
2023/09/01 07:16:00;;;;;;;0.20;0.20;;;;;;;20.27;100.00;99941.19;5089791;28;20107;-61
2023/09/01 07:18:25;;;;;;;0.20;0.20;;;;;;;20.31;100.00;99937.28;5090478;28;20121;-61
2023/09/01 07:20:56;;;;;;;0.20;0.20;;;;;;;20.29;100.00;99938.38;5081037;28;20032;-61
2023/09/01 07:23:21;;;;;;;0.20;0.20;;;;;;;20.42;100.00;99940.06;5089238;28;20044;-61
2023/09/01 07:25:47;;;;;;;0.17;0.17;;;;;;;20.53;100.00;99948.25;5089828;28;20036;-62
2023/09/01 07:28:13;;;;;;;0.20;0.20;;;;;;;20.70;100.00;99944.28;5085540;28;20030;-62
2023/09/01 07:30:38;;;;;;;0.20;0.20;;;;;;;20.53;100.00;99942.84;5089409;28;20111;-62
2023/09/01 07:33:04;;;;;;;0.20;0.20;;;;;;;20.57;100.00;99936.25;5090180;28;20115;-62
2023/09/01 07:35:29;;;;;;;0.20;0.20;;;;;;;20.60;100.00;99941.41;5088635;28;20038;-62
2023/09/01 07:37:56;;;;;;;0.20;0.20;;;;;;;20.75;100.00;99942.09;5083083;28;20032;-62
2023/09/01 07:40:22;;;;;;;0.20;0.20;;;;;;;20.93;100.00;99938.88;5082601;28;20035;-62
2023/09/01 07:42:48;;;;;;;0.20;0.20;;;;;;;21.18;100.00;99953.25;5081759;28;20095;-62
2023/09/01 07:45:13;;;;;;;0.20;0.20;;;;;;;21.52;100.00;99947.81;5081479;28;20089;-62
2023/09/01 07:47:39;;;;;;;0.20;0.20;;;;;;;21.86;99.91;99948.75;5085223;28;20102;-62
2023/09/01 07:50:05;;;;;;;0.20;0.20;;;;;;;21.82;96.87;99942.72;5083138;28;20031;-62
2023/09/01 07:52:31;;;;;;;0.20;0.20;;;;;;;21.88;96.67;99944.03;5083789;28;20525;-62
2023/09/01 07:54:56;;;;;;;0.10;0.10;;;;;;;22.02;97.13;99943.81;5080218;28;20025;-62
2023/09/01 07:57:21;;;;;;;0.10;0.10;;;;;;;22.27;96.00;99946.28;5082608;28;20055;-62
2023/09/01 07:59:47;;;;;;;0.10;0.10;;;;;;;22.55;93.09;99945.75;5070069;28;20090;-61
2023/09/01 08:02:12;;;;;;;0.20;0.20;;;;;;;22.51;91.90;99946.09;5077501;28;20032;-61
2023/09/01 08:04:38;;;;;;;0.20;0.20;;;;;;;22.60;92.11;99958.94;5069036;28;20083;-62
2023/09/01 08:07:03;;;;;;;0.20;0.20;;;;;;;22.62;92.36;99940.69;5060568;28;20020;-62
2023/09/01 08:09:29;;;;;;;0.20;0.20;;;;;;;22.70;90.50;99947.16;5082855;28;20052;-63
2023/09/01 08:11:55;;;;;;;0.10;0.10;;;;;;;22.61;91.03;99945.25;5070178;28;21470;-61
2023/09/01 08:14:21;;;;;;;0.10;0.10;;;;;;;22.91;88.33;99950.81;5069745;28;20106;-63
2023/09/01 08:16:47;;;;;;;0.10;0.10;;;;;;;23.19;88.01;99957.47;5076351;28;20020;-62
2023/09/01 08:19:13;;;;;;;0.10;0.10;;;;;;;23.22;86.04;99965.34;5076590;28;20499;-62
2023/09/01 08:21:39;;;;;;;0.10;0.10;;;;;;;23.05;87.53;99963.19;5081868;28;20085;-61
2023/09/01 08:24:05;;;;;;;0.10;0.10;;;;;;;22.81;88.58;99963.44;5075383;28;20107;-61
2023/09/01 08:26:31;;;;;;;0.10;0.10;;;;;;;22.91;88.92;99964.38;5085530;28;20357;-62
2023/09/01 08:28:57;;;;;;;0.10;0.10;;;;;;;22.83;88.77;99958.72;5078428;28;20024;-61
2023/09/01 08:31:22;;;;;;;0.10;0.10;;;;;;;22.90;90.57;99964.53;5090000;28;20028;-61
2023/09/01 08:33:48;;;;;;;0.10;0.10;;;;;;;22.72;90.64;99968.72;5087151;28;20414;-61
2023/09/01 08:36:13;;;;;;;0.10;0.10;;;;;;;22.65;91.54;99976.53;5083278;28;20124;-61
2023/09/01 08:38:38;;;;;;;0.10;0.10;;;;;;;22.56;92.74;99973.72;5090247;28;20429;-61
2023/09/01 08:41:05;;;;;;;0.20;0.20;;;;;;;22.60;93.41;99970.63;5090451;28;20020;-61
2023/09/01 08:43:36;;;;;;;0.10;0.10;;;;;;;22.44;93.38;99967.41;5076680;28;20024;-61
2023/09/01 08:46:06;;;;;;;0.20;0.20;;;;;;;22.47;94.50;99964.44;5082349;28;20221;-61
2023/09/01 08:48:32;;;;;;;0.10;0.10;;;;;;;22.50;92.58;99966.94;5079449;28;20037;-61
2023/09/01 08:50:58;;;;;;;0.17;0.17;;;;;;;22.74;93.30;99970.34;5076956;28;20035;-61
2023/09/01 08:53:26;;;;;;;0.10;0.10;;;;;;;22.97;92.92;99972.00;5069194;28;20404;-61
2023/09/01 08:55:55;;;;;;;0.10;0.10;;;;;;;23.05;91.99;99972.22;5076177;28;20817;-61
2023/09/01 08:58:21;;;;;;;0.20;0.20;;;;;;;22.98;88.96;99967.44;5081296;28;20020;-62
2023/09/01 09:00:48;;;;;;;0.10;0.10;;;;;;;23.02;89.33;99980.63;5069019;28;20020;-62
2023/09/01 09:03:16;;;;;;;0.10;0.10;;;;;;;23.07;88.87;99972.94;5070158;28;20587;-61
2023/09/01 09:05:44;;;;;;;0.10;0.10;;;;;;;23.16;87.72;99972.16;5081728;28;20071;-61
2023/09/01 09:08:10;;;;;;;0.10;0.10;;;;;;;23.13;84.72;99980.56;5085543;28;20389;-61
2023/09/01 09:10:38;;;;;;;0.10;0.10;;;;;;;23.11;84.63;99974.41;5088740;28;20439;-61
2023/09/01 09:13:19;;;;;;;0.10;0.10;;;;;;;23.28;85.88;99976.59;5082334;28;20028;-61
2023/09/01 09:15:44;;;;;;;0.10;0.10;;;;;;;23.32;85.36;99967.19;5077959;28;20035;-61
2023/09/01 09:18:09;;;;;;;0.10;0.10;;;;;;;23.52;84.67;99962.75;5086470;28;20024;-61
2023/09/01 09:20:37;;;;;;;0.10;0.10;;;;;;;23.40;81.82;99970.13;5085097;28;20974;-61
2023/09/01 09:23:03;;;;;;;0.20;0.20;;;;;;;23.52;82.96;99973.63;5079494;28;20028;-62
2023/09/01 09:25:33;;;;;;;0.10;0.10;;;;;;;23.71;82.23;99962.00;5075775;28;20129;-61
2023/09/01 09:28:10;;;;;;;0.10;0.10;;;;;;;23.78;80.35;99963.19;5089605;28;20058;-61
2023/09/01 09:30:35;;;;;;;0.10;0.10;;;;;;;24.04;79.52;99959.06;5089254;28;20056;-62
2023/09/01 09:33:06;;;;;;;0.20;0.20;;;;;;;24.09;78.53;99967.69;5079328;28;20056;-61
2023/09/01 09:35:47;;;;;;;0.10;0.10;;;;;;;24.01;77.17;99956.63;5068516;28;20047;-62
2023/09/01 09:38:12;;;;;;;0.10;0.10;;;;;;;23.78;78.69;99957.75;5068998;28;20818;-62
2023/09/01 09:40:38;;;;;;;0.10;0.10;;;;;;;24.09;79.29;99967.69;5073013;28;20070;-63
2023/09/01 09:43:08;;;;;;;0.10;0.10;;;;;;;24.43;78.11;99967.22;5089037;28;20082;-62
2023/09/01 09:45:34;;;;;;;0.10;0.10;;;;;;;24.50;76.25;99970.25;5088204;28;20024;-62
2023/09/01 09:48:01;;;;;;;0.10;0.10;;;;;;;24.54;76.84;99969.00;5087063;28;20020;-62
2023/09/01 09:50:28;;;;;;;0.10;0.10;;;;;;;24.52;76.15;99960.09;5088285;28;20108;-61
2023/09/01 09:53:04;;;;;;;0.10;0.10;;;;;;;24.78;77.04;99961.34;5088027;28;20387;-61
2023/09/01 09:55:42;;;;;;;0.10;0.10;;;;;;;24.74;75.08;99965.34;5087265;28;20034;-62
2023/09/01 09:58:09;;;;;;;0.10;0.10;;;;;;;25.04;75.77;99961.66;5088032;28;20488;-63
2023/09/01 10:00:50;;;;;;;0.10;0.10;;;;;;;25.34;75.05;99967.81;5088306;28;20024;-65
2023/09/01 10:03:17;;;;;;;0.10;0.10;;;;;;;25.47;74.00;99968.41;5087894;28;20035;-65
2023/09/01 10:05:44;;;;;;;0.10;0.10;;;;;;;25.85;73.80;99964.75;5088995;28;20028;-64
2023/09/01 10:08:10;;;;;;;0.10;0.10;;;;;;;25.87;71.68;99955.44;5087623;28;20092;-65
2023/09/01 10:10:37;;;;;;;0.10;0.10;;;;;;;25.81;69.67;99958.72;5085203;28;20032;-65
2023/09/01 10:13:09;;;;;;;0.10;0.10;;;;;;;26.12;70.64;99955.78;5087856;28;20056;-65
2023/09/01 10:15:35;;;;;;;0.10;0.10;;;;;;;25.98;68.69;99960.69;5070186;28;20032;-64
2023/09/01 10:18:06;;;;;;;0.10;0.10;;;;;;;25.70;70.15;99958.91;5088120;28;20031;-64
2023/09/01 10:20:38;;;;;;;0.10;0.10;;;;;;;25.53;72.07;99967.84;5075103;28;20039;-65
2023/09/01 10:23:05;;;;;;;0.10;0.10;;;;;;;25.46;72.85;99972.16;5072765;28;20025;-64
2023/09/01 10:25:31;;;;;;;0.10;0.10;;;;;;;25.43;73.62;99966.13;5071810;28;20036;-64
2023/09/01 10:28:11;;;;;;;0.10;0.10;;;;;;;25.31;73.70;99970.84;5087274;28;20035;-65
2023/09/01 10:30:45;;;;;;;0.10;0.10;;;;;;;25.30;74.96;99969.13;5087669;28;20024;-65
2023/09/01 10:33:25;;;;;;;0.10;0.10;;;;;;;25.34;74.29;99975.97;5083308;28;20024;-65
2023/09/01 10:35:53;;;;;;;0.10;0.10;;;;;;;25.47;74.05;99973.84;5058005;28;20097;-65
2023/09/01 10:38:35;;;;;;;0.10;0.10;;;;;;;25.46;72.82;99974.88;5067667;28;20455;-65
2023/09/01 10:41:01;;;;;;;0.10;0.10;;;;;;;25.91;74.59;99969.63;5074475;28;20016;-65
2023/09/01 10:43:36;;;;;;;0.10;0.10;;;;;;;26.04;73.06;99969.31;5087938;28;20268;-65
2023/09/01 10:46:14;;;;;;;0.10;0.10;;;;;;;26.22;72.65;99971.13;5087560;28;20082;-65
2023/09/01 10:48:57;;;;;;;0.10;0.10;;;;;;;26.30;71.58;99970.34;5086723;28;20104;-65
2023/09/01 10:51:30;;;;;;;0.10;0.10;;;;;;;26.21;71.05;99977.56;5087671;28;20360;-65
2023/09/01 10:53:59;;;;;;;0.10;0.10;;;;;;;26.24;71.61;99976.41;5087220;28;20036;-65
2023/09/01 10:56:26;;;;;;;0.10;0.10;;;;;;;26.14;72.70;99981.91;5087372;28;20051;-65
2023/09/01 10:58:53;;;;;;;0.10;0.10;;;;;;;26.32;73.38;99974.66;5086637;28;20535;-64
2023/09/01 11:01:25;;;;;;;0.10;0.10;;;;;;;26.46;71.80;99976.00;5083441;28;20027;-65
2023/09/01 11:03:50;;;;;;;0.10;0.10;;;;;;;26.64;72.04;99976.94;5066866;28;20040;-65
2023/09/01 11:06:16;;;;;;;0.10;0.10;;;;;;;27.28;70.71;99979.56;5066387;28;20028;-65
2023/09/01 11:08:56;;;;;;;0.10;0.10;;;;;;;27.78;66.06;99978.78;5082782;28;20059;-65
2023/09/01 11:11:21;;;;;;;0.10;0.10;;;;;;;28.27;63.36;99974.53;5080251;28;20115;-65
2023/09/01 11:13:53;;;;;;;0.10;0.10;;;;;;;28.92;63.03;99975.66;5075806;28;20038;-65
2023/09/01 11:16:18;;;;;;;0.00;0.00;;;;;;;28.82;61.17;99984.00;5067533;28;20479;-65
2023/09/01 11:18:46;;;;;;;0.00;0.00;;;;;;;28.89;57.73;99978.72;5066967;28;20099;-64
2023/09/01 11:21:11;;;;;;;0.10;0.10;;;;;;;28.55;60.64;99978.78;5066969;28;20029;-65
2023/09/01 11:23:37;;;;;;;0.10;0.10;;;;;;;28.42;63.79;99973.72;5074970;28;20029;-65
2023/09/01 11:26:04;;;;;;;0.03;0.03;;;;;;;28.34;63.61;99975.56;5066749;28;20531;-64
2023/09/01 11:28:29;;;;;;;0.03;0.03;;;;;;;28.00;62.59;99975.56;5082106;28;20047;-64
2023/09/01 11:31:03;;;;;;;0.00;0.00;;;;;;;27.81;62.29;99972.16;5086992;28;20070;-64